createdAt,value
2022-08-30T00:01:35.552Z,65387.91
2022-08-30T00:05:03.015Z,65387.91
2022-08-30T00:08:27.492Z,65387.91
2022-08-30T00:11:53.341Z,65387.91
2022-08-30T00:15:19.784Z,65387.91
2022-08-30T00:18:45.457Z,65387.91
2022-08-30T00:22:13.205Z,65387.91
2022-08-30T00:25:39.480Z,65387.91
2022-08-30T00:29:05.517Z,65387.91
2022-08-30T00:32:31.231Z,65387.91
2022-08-30T00:35:57.320Z,65387.91
2022-08-30T00:39:24.915Z,65387.91
2022-08-30T00:42:52.876Z,65387.91
2022-08-30T00:46:24.528Z,65387.91
2022-08-30T00:49:52.830Z,65387.91
2022-08-30T00:53:25.624Z,65387.91
2022-08-30T00:56:52.770Z,65387.91
2022-08-30T01:00:18.796Z,65387.91
2022-08-30T01:03:45.539Z,65387.91
2022-08-30T01:07:11.704Z,65387.91
2022-08-30T01:10:38.121Z,65387.91
2022-08-30T01:14:00.486Z,65387.91
2022-08-30T01:17:26.699Z,65387.91
2022-08-30T01:20:49.468Z,65387.91
2022-08-30T01:24:19.288Z,65387.91
2022-08-30T01:27:49.762Z,65387.91
2022-08-30T01:31:16.908Z,65387.91
2022-08-30T01:34:43.232Z,65387.91
2022-08-30T01:37:48.341Z,65387.91
2022-08-30T01:41:17.031Z,65387.91
2022-08-30T01:44:43.201Z,65387.91
2022-08-30T01:48:09.396Z,65387.91
2022-08-30T01:51:35.595Z,65387.91
2022-08-30T01:55:02.053Z,65387.91
2022-08-30T01:58:30.819Z,65387.91
2022-08-30T02:01:57.328Z,65387.91
2022-08-30T02:05:23.333Z,65387.91
2022-08-30T02:08:48.198Z,65387.91
2022-08-30T02:12:15.263Z,65387.91
2022-08-30T02:15:43.025Z,65387.91
2022-08-30T02:19:09.861Z,65387.91
2022-08-30T02:22:40.338Z,65387.91
2022-08-30T02:26:14.104Z,65387.91
2022-08-30T02:29:40.444Z,65387.91
2022-08-30T02:33:06.561Z,65387.91
2022-08-30T02:36:32.711Z,65387.91
2022-08-30T02:39:58.636Z,65387.91
2022-08-30T02:43:24.596Z,65387.91
2022-08-30T02:46:49.807Z,65387.91
2022-08-30T02:50:10.833Z,65387.91
2022-08-30T02:53:36.244Z,65387.91
2022-08-30T02:57:04.779Z,65387.91
2022-08-30T03:00:30.533Z,65387.91
2022-08-30T03:03:56.847Z,65387.91
2022-08-30T03:07:25.341Z,65387.91
2022-08-30T03:10:51.282Z,65387.91
2022-08-30T03:14:17.406Z,65387.91
2022-08-30T03:17:43.412Z,65387.91
2022-08-30T03:20:24.027Z,100889.13
2022-08-30T03:23:07.521Z,100889.13
2022-08-30T03:25:53.343Z,100889.13
2022-08-30T03:29:19.358Z,65387.91
2022-08-30T03:32:07.622Z,100889.13
2022-08-30T03:35:04.600Z,100889.13
2022-08-30T03:37:41.992Z,100889.13
2022-08-30T03:41:11.327Z,65387.91
2022-08-30T03:44:37.554Z,65387.91
2022-08-30T03:47:19.844Z,100889.13
2022-08-30T03:50:45.878Z,65387.91
2022-08-30T03:53:38.233Z,100889.13
2022-08-30T03:57:05.852Z,65387.91
2022-08-30T04:00:32.103Z,65387.91
2022-08-30T04:03:57.973Z,65387.91
2022-08-30T04:06:34.183Z,100889.13
2022-08-30T04:10:00.750Z,65387.91
2022-08-30T04:13:28.378Z,65387.91
2022-08-30T04:16:54.760Z,65387.91
2022-08-30T04:20:20.669Z,65387.91
2022-08-30T04:23:12.847Z,100889.13
2022-08-30T04:25:41.973Z,101043.78
2022-08-30T04:29:02.313Z,65387.91
2022-08-30T04:32:01.409Z,101043.78
2022-08-30T04:34:51.682Z,101043.78
2022-08-30T04:38:18.367Z,65387.91
2022-08-30T04:41:48.440Z,65387.91
2022-08-30T04:45:17.378Z,65387.91
2022-08-30T04:48:42.890Z,65387.91
2022-08-30T04:52:10.899Z,65387.91
2022-08-30T04:55:37.572Z,65387.91
2022-08-30T04:59:04.205Z,65387.91
2022-08-30T05:02:32.429Z,65387.91
2022-08-30T05:05:17.525Z,101057.34
2022-08-30T05:08:46.026Z,65387.91
2022-08-30T05:12:13.528Z,65387.91
2022-08-30T05:15:40.328Z,65387.91
2022-08-30T05:19:08.076Z,65387.91
2022-08-30T05:22:36.264Z,65387.91
2022-08-30T05:26:05.517Z,65387.91
2022-08-30T05:29:31.614Z,65387.91
2022-08-30T05:32:58.001Z,65387.91
2022-08-30T05:36:26.500Z,65387.91
2022-08-30T05:39:51.978Z,65387.91
2022-08-30T05:43:17.732Z,65387.91
2022-08-30T05:46:45.982Z,65387.91
2022-08-30T05:50:09.855Z,65387.91
2022-08-30T05:53:39.050Z,65387.91
2022-08-30T05:57:06.438Z,65387.91
2022-08-30T06:00:32.647Z,65387.91
2022-08-30T06:04:03.514Z,65387.91
2022-08-30T06:07:30.512Z,65387.91
2022-08-30T06:10:56.924Z,65387.91
2022-08-30T06:14:22.876Z,65387.91
2022-08-30T06:17:48.901Z,65387.91
2022-08-30T06:21:16.985Z,65387.91
2022-08-30T06:24:56.968Z,65387.91
2022-08-30T06:28:23.785Z,65387.91
2022-08-30T06:31:42.708Z,65387.91
2022-08-30T06:35:07.933Z,65387.91
2022-08-30T06:38:33.418Z,65387.91
2022-08-30T06:41:55.512Z,65387.91
2022-08-30T06:45:21.476Z,65387.91
2022-08-30T06:48:40.463Z,65387.91
2022-08-30T06:52:07.684Z,65387.91
2022-08-30T06:55:34.158Z,65387.91
2022-08-30T06:59:00.856Z,65387.91
2022-08-30T07:02:15.368Z,65387.91
2022-08-30T07:05:37.334Z,65387.91
2022-08-30T07:08:58.922Z,65387.91
2022-08-30T07:11:50.385Z,65387.91
2022-08-30T07:14:57.078Z,65387.91
2022-08-30T07:18:32.963Z,65387.91
2022-08-30T07:21:57.592Z,65387.91
2022-08-30T07:25:19.920Z,65387.91
2022-08-30T07:28:45.181Z,65387.91
2022-08-30T07:32:10.408Z,65387.91
2022-08-30T07:35:38.554Z,65387.91
2022-08-30T07:38:57.444Z,65387.91
2022-08-30T07:42:22.142Z,65387.91
2022-08-30T07:45:39.972Z,65387.91
2022-08-30T07:49:11.139Z,65387.91
2022-08-30T07:52:39.685Z,65387.91
2022-08-30T07:55:55.940Z,65387.91
2022-08-30T07:59:16.584Z,65387.91
2022-08-30T08:02:29.224Z,65387.91
2022-08-30T08:05:55.753Z,65387.91
2022-08-30T08:09:16.216Z,65387.91
2022-08-30T08:12:38.723Z,65387.91
2022-08-30T08:15:34.672Z,65387.91
2022-08-30T08:18:15.567Z,65387.91
2022-08-30T08:21:41.580Z,65387.91
2022-08-30T08:24:55.079Z,65387.91
2022-08-30T08:27:58.013Z,65387.91
2022-08-30T08:31:14.590Z,65387.91
2022-08-30T08:34:41.447Z,65387.91
2022-08-30T08:38:02.976Z,65387.91
2022-08-30T08:41:06.060Z,65387.91
2022-08-30T08:43:37.418Z,101622.88
2022-08-30T08:46:11.379Z,101693.72
2022-08-30T08:49:25.019Z,65387.91
2022-08-30T08:52:24.069Z,65387.91
2022-08-30T08:54:56.164Z,101376.09
2022-08-30T08:57:34.338Z,101358.50
2022-08-30T09:00:01.809Z,101340.66
2022-08-30T09:02:34.811Z,101296.44
2022-08-30T09:05:03.600Z,101263.63
2022-08-30T09:07:37.852Z,101119.06
2022-08-30T09:10:06.568Z,101050.47
2022-08-30T09:12:35.647Z,101012.63
2022-08-30T09:15:09.747Z,100975.81
2022-08-30T09:17:52.041Z,100960.47
2022-08-30T09:20:28.242Z,100858.31
2022-08-30T09:22:57.196Z,100822.75
2022-08-30T09:25:28.954Z,100841.16
2022-08-30T09:28:11.281Z,100829.56
2022-08-30T09:30:39.439Z,100821.22
2022-08-30T09:33:20.072Z,100812.53
2022-08-30T09:35:49.871Z,100813.53
2022-08-30T09:38:19.671Z,100812.09
2022-08-30T09:40:49.241Z,100754.69
2022-08-30T09:43:25.636Z,100743.09
2022-08-30T09:46:09.152Z,100710.31
2022-08-30T09:48:40.374Z,100673.06
2022-08-30T09:51:27.676Z,100679.97
2022-08-30T09:54:17.025Z,100704.00
2022-08-30T09:56:57.660Z,100707.06
2022-08-30T09:59:40.566Z,100730.88
2022-08-30T10:02:31.046Z,100715.38
2022-08-30T10:05:11.060Z,100722.38
2022-08-30T10:07:47.026Z,100727.41
2022-08-30T10:10:20.136Z,100727.22
2022-08-30T10:12:55.420Z,65387.91
2022-08-30T10:15:29.982Z,100758.25
2022-08-30T10:18:07.199Z,100781.72
2022-08-30T10:20:44.112Z,100778.41
2022-08-30T10:23:14.911Z,100780.47
2022-08-30T10:25:48.796Z,100784.03
2022-08-30T10:28:23.686Z,100776.34
2022-08-30T10:30:59.377Z,100776.09
2022-08-30T10:33:31.840Z,100755.81
2022-08-30T10:36:05.515Z,100728.41
2022-08-30T10:38:41.839Z,100724.50
2022-08-30T10:41:25.288Z,100722.66
2022-08-30T10:43:58.765Z,100731.03
2022-08-30T10:46:33.284Z,100729.53
2022-08-30T10:49:06.832Z,100721.72
2022-08-30T10:51:41.457Z,100715.63
2022-08-30T10:54:20.995Z,100717.47
2022-08-30T10:56:52.292Z,100716.09
2022-08-30T10:59:21.327Z,100724.94
2022-08-30T11:02:20.608Z,100727.34
2022-08-30T11:05:09.065Z,100754.97
2022-08-30T11:07:44.974Z,100765.16
2022-08-30T11:10:47.847Z,100761.28
2022-08-30T11:13:22.154Z,100781.72
2022-08-30T11:15:57.854Z,100796.00
2022-08-30T11:18:29.663Z,100817.31
2022-08-30T11:21:22.319Z,100802.19
2022-08-30T11:24:07.806Z,100805.25
2022-08-30T11:26:57.369Z,65387.91
2022-08-30T11:29:43.360Z,100813.81
2022-08-30T11:32:26.653Z,100824.09
2022-08-30T11:35:00.123Z,100829.03
2022-08-30T11:37:41.837Z,100826.56
2022-08-30T11:40:32.568Z,100816.44
2022-08-30T11:43:43.865Z,100815.38
2022-08-30T11:46:17.606Z,100809.53
2022-08-30T11:48:55.233Z,100807.53
2022-08-30T11:52:08.437Z,100820.22
2022-08-30T11:54:53.312Z,100823.34
2022-08-30T11:57:30.672Z,100827.16
2022-08-30T12:00:07.909Z,100831.19
2022-08-30T12:02:53.269Z,100832.69
2022-08-30T12:05:51.226Z,100845.13
2022-08-30T12:08:49.170Z,100849.06
2022-08-30T12:11:58.523Z,100851.22
2022-08-30T12:14:54.376Z,100848.13
2022-08-30T12:17:50.940Z,100848.81
2022-08-30T12:20:24.289Z,100842.41
2022-08-30T12:22:52.494Z,100836.75
2022-08-30T12:25:26.904Z,100845.34
2022-08-30T12:31:11.623Z,100851.78
2022-08-30T12:33:43.730Z,100851.94
2022-08-30T12:36:17.396Z,100850.47
2022-08-30T12:38:51.351Z,100850.47
2022-08-30T12:41:20.964Z,100844.78
2022-08-30T12:47:01.886Z,100839.34
2022-08-30T12:49:35.131Z,100838.22
2022-08-30T12:52:17.340Z,100836.47
2022-08-30T12:54:46.153Z,100823.91
2022-08-30T12:57:35.397Z,100827.19
2022-08-30T13:00:05.339Z,100822.91
2022-08-30T13:02:46.833Z,100810.97
2022-08-30T13:05:39.206Z,100812.38
2022-08-30T13:08:19.510Z,100806.66
2022-08-30T13:10:52.750Z,100812.03
2022-08-30T13:13:35.178Z,100806.19
2022-08-30T13:16:22.696Z,100806.84
2022-08-30T13:18:53.363Z,100799.75
2022-08-30T13:21:27.918Z,100810.09
2022-08-30T13:24:00.105Z,100795.09
2022-08-30T13:26:32.927Z,100792.25
2022-08-30T13:29:02.757Z,100792.47
2022-08-30T13:31:32.513Z,100791.97
2022-08-30T13:34:02.399Z,100785.44
2022-08-30T13:36:31.962Z,100786.09
2022-08-30T13:39:00.746Z,100782.59
2022-08-30T13:41:30.171Z,100787.41
2022-08-30T13:44:13.268Z,100777.47
2022-08-30T13:46:47.618Z,100782.34
2022-08-30T13:52:21.062Z,100778.38
2022-08-30T13:54:49.893Z,100773.25
2022-08-30T13:57:53.688Z,100775.56
2022-08-30T14:00:12.388Z,100774.03
2022-08-30T14:02:45.476Z,100767.13
2022-08-30T14:05:46.750Z,100778.41
2022-08-30T14:08:44.513Z,100761.28
2022-08-30T14:10:55.934Z,100764.38
2022-08-30T14:13:23.493Z,100766.00
2022-08-30T14:16:26.523Z,100757.72
2022-08-30T14:18:40.232Z,100762.38
2022-08-30T14:21:09.557Z,100757.63
2022-08-30T14:23:37.099Z,100759.09
2022-08-30T14:26:15.310Z,100754.44
2022-08-30T14:28:45.915Z,100762.09
2022-08-30T14:31:19.734Z,100756.94
2022-08-30T14:33:54.803Z,100755.97
2022-08-30T14:36:23.620Z,100758.81
2022-08-30T14:38:52.229Z,100753.72
2022-08-30T14:41:19.797Z,100757.25
2022-08-30T14:43:48.308Z,100749.38
2022-08-30T14:46:15.783Z,100749.03
2022-08-30T14:48:43.914Z,100740.06
2022-08-30T14:51:17.039Z,100744.16
2022-08-30T14:53:47.562Z,100737.25
2022-08-30T14:56:17.405Z,100734.09
2022-08-30T14:58:48.795Z,100730.38
2022-08-30T15:01:16.351Z,100721.44
2022-08-30T15:03:43.923Z,100728.19
2022-08-30T15:06:12.370Z,100727.25
2022-08-30T15:08:40.320Z,100730.34
2022-08-30T15:11:10.842Z,100729.75
2022-08-30T15:13:38.477Z,100727.81
2022-08-30T15:16:12.085Z,100732.88
2022-08-30T15:18:41.681Z,100724.31
2022-08-30T15:21:09.783Z,100717.78
2022-08-30T15:23:37.551Z,100708.44
2022-08-30T15:26:08.052Z,100722.19
2022-08-30T15:28:38.202Z,100719.25
2022-08-30T15:31:09.022Z,100719.94
2022-08-30T15:33:37.124Z,100712.19
2022-08-30T15:36:05.857Z,100705.44
2022-08-30T15:38:36.130Z,100710.72
2022-08-30T15:41:07.342Z,100714.78
2022-08-30T15:43:35.902Z,100715.16
2022-08-30T15:46:17.193Z,100708.03
2022-08-30T15:48:47.294Z,100706.41
2022-08-30T15:51:16.593Z,100700.41
2022-08-30T15:53:44.239Z,100697.63
2022-08-30T15:56:12.957Z,100697.97
2022-08-30T15:58:41.903Z,100699.31
2022-08-30T16:01:11.164Z,100701.31
2022-08-30T16:03:41.464Z,100692.59
2022-08-30T16:06:13.983Z,100686.28
2022-08-30T16:08:42.136Z,100700.47
2022-08-30T16:11:11.427Z,100670.88
2022-08-30T16:13:40.087Z,100679.03
2022-08-30T16:16:11.104Z,100675.94
2022-08-30T16:18:39.794Z,100678.34
2022-08-30T16:21:09.859Z,100664.25
2022-08-30T16:23:39.069Z,100672.91
2022-08-30T16:26:06.849Z,100664.84
2022-08-30T16:28:35.365Z,100665.09
2022-08-30T16:31:03.383Z,100654.88
2022-08-30T16:33:39.938Z,100662.84
2022-08-30T16:36:11.768Z,100651.31
2022-08-30T16:38:40.188Z,100653.69
2022-08-30T16:41:09.760Z,100655.00
2022-08-30T16:43:38.885Z,100660.66
2022-08-30T16:46:09.413Z,100652.97
2022-08-30T16:48:40.996Z,100650.94
2022-08-30T16:51:10.492Z,100656.84
2022-08-30T16:53:39.232Z,100643.84
2022-08-30T16:56:09.454Z,100643.69
2022-08-30T16:58:37.649Z,100647.59
2022-08-30T17:01:07.125Z,100631.69
2022-08-30T17:03:39.776Z,100624.91
2022-08-30T17:06:09.549Z,100631.75
2022-08-30T17:08:36.955Z,100644.59
2022-08-30T17:11:05.215Z,100646.34
2022-08-30T17:13:36.586Z,100641.53
2022-08-30T17:16:05.721Z,100640.47
2022-08-30T17:18:33.612Z,100640.28
2022-08-30T17:21:02.656Z,100655.00
2022-08-30T17:23:30.649Z,100649.66
2022-08-30T17:25:58.077Z,100655.25
2022-08-30T17:28:25.504Z,100665.84
2022-08-30T17:30:53.016Z,100654.75
2022-08-30T17:33:20.919Z,100660.06
2022-08-30T17:35:48.596Z,100650.28
2022-08-30T17:38:17.712Z,100623.44
2022-08-30T17:40:46.246Z,100582.47
2022-08-30T17:43:13.700Z,100522.50
2022-08-30T17:45:41.135Z,100449.53
2022-08-30T17:48:08.517Z,100355.88
2022-08-30T17:50:38.531Z,100284.28
2022-08-30T17:53:06.189Z,65387.91
2022-08-30T17:55:35.564Z,65387.91
2022-08-30T17:58:02.960Z,65387.91
2022-08-30T18:00:30.512Z,65387.91
2022-08-30T18:02:57.975Z,65387.91
2022-08-30T18:05:27.297Z,65387.91
2022-08-30T18:07:55.266Z,65387.91
2022-08-30T18:10:27.232Z,100097.22
2022-08-30T18:13:01.755Z,65387.91
2022-08-30T18:15:30.286Z,65387.91
2022-08-30T18:17:57.665Z,100805.91
2022-08-30T18:20:26.395Z,65387.91
2022-08-30T18:22:55.522Z,65387.91
2022-08-30T18:25:22.988Z,65387.91
2022-08-30T18:27:58.210Z,65387.91
2022-08-30T18:30:41.458Z,101451.75
2022-08-30T18:33:09.695Z,65387.91
2022-08-30T18:35:37.565Z,101470.75
2022-08-30T18:38:05.172Z,101484.72
2022-08-30T18:40:32.690Z,65387.91
2022-08-30T18:43:04.790Z,65387.91
2022-08-30T18:45:32.709Z,65387.91
2022-08-30T18:48:01.515Z,101429.50
2022-08-30T18:50:30.950Z,101445.94
2022-08-30T18:52:59.505Z,65387.91
2022-08-30T18:55:27.445Z,101427.91
2022-08-30T18:57:54.920Z,101417.53
2022-08-30T19:00:22.515Z,101401.06
2022-08-30T19:02:49.995Z,101397.06
2022-08-30T19:05:21.964Z,101414.47
2022-08-30T19:07:52.051Z,101400.34
2022-08-30T19:10:27.136Z,101391.84
2022-08-30T19:12:55.215Z,101380.50
2022-08-30T19:15:23.697Z,101384.81
2022-08-30T19:17:51.079Z,101374.06
2022-08-30T19:20:24.471Z,101356.84
2022-08-30T19:23:09.058Z,101327.16
2022-08-30T19:25:37.890Z,101299.06
2022-08-30T19:28:05.936Z,101309.19
2022-08-30T19:30:33.641Z,101288.66
2022-08-30T19:33:01.084Z,101301.13
2022-08-30T19:35:30.413Z,101262.34
2022-08-30T19:37:58.373Z,101250.50
2022-08-30T19:40:25.910Z,101256.41
2022-08-30T19:42:53.509Z,101223.94
2022-08-30T19:45:22.638Z,101193.09
2022-08-30T19:47:51.859Z,101169.16
2022-08-30T19:50:21.212Z,101165.59
2022-08-30T19:52:54.807Z,101175.50
2022-08-30T19:55:28.145Z,101175.91
2022-08-30T19:57:56.429Z,101165.41
2022-08-30T20:00:24.227Z,101150.56
2022-08-30T20:02:52.155Z,101146.16
2022-08-30T20:05:21.325Z,101159.81
2022-08-30T20:07:50.880Z,101153.03
2022-08-30T20:10:19.788Z,101151.78
2022-08-30T20:12:49.815Z,101133.31
2022-08-30T20:15:19.523Z,101134.81
2022-08-30T20:18:05.630Z,101126.78
2022-08-30T20:20:36.475Z,101136.44
2022-08-30T20:23:06.948Z,101130.91
2022-08-30T20:25:35.153Z,101140.84
2022-08-30T20:28:03.221Z,101150.16
2022-08-30T20:30:30.656Z,101145.94
2022-08-30T20:32:58.362Z,101156.59
2022-08-30T20:35:25.761Z,101147.09
2022-08-30T20:37:53.240Z,101141.78
2022-08-30T20:40:22.210Z,101148.38
2022-08-30T20:42:49.794Z,101154.25
2022-08-30T20:45:18.431Z,101142.75
2022-08-30T20:47:45.965Z,101140.22
2022-08-30T20:50:18.009Z,101145.16
2022-08-30T20:52:47.155Z,101139.97
2022-08-30T20:55:17.192Z,101148.13
2022-08-30T20:57:45.914Z,101132.25
2022-08-30T21:00:14.613Z,101127.78
2022-08-30T21:02:46.852Z,101150.06
2022-08-30T21:05:16.971Z,101148.88
2022-08-30T21:07:45.547Z,101152.88
2022-08-30T21:10:13.860Z,101145.28
2022-08-30T21:12:42.701Z,101144.81
2022-08-30T21:15:34.018Z,101152.53
2022-08-30T21:18:00.691Z,101153.00
2022-08-30T21:20:28.127Z,101163.94
2022-08-30T21:22:57.924Z,101158.16
2022-08-30T21:25:25.352Z,101173.63
2022-08-30T21:27:53.588Z,101184.97
2022-08-30T21:30:22.665Z,101191.41
2022-08-30T21:32:50.064Z,101202.47
2022-08-30T21:35:35.569Z,101197.50
2022-08-30T21:38:04.260Z,101193.59
2022-08-30T21:40:31.714Z,101182.44
2022-08-30T21:43:02.540Z,101188.22
2022-08-30T21:45:38.282Z,101189.34
2022-08-30T21:48:05.962Z,101198.88
2022-08-30T21:50:33.398Z,101186.09
2022-08-30T21:53:00.996Z,101184.31
2022-08-30T21:55:28.521Z,101190.66
2022-08-30T21:57:56.115Z,101165.00
2022-08-30T22:00:23.509Z,101159.16
2022-08-30T22:02:57.479Z,101153.13
2022-08-30T22:05:25.073Z,101166.88
2022-08-30T22:07:52.474Z,101172.59
2022-08-30T22:10:21.011Z,101174.09
2022-08-30T22:12:50.789Z,101180.16
2022-08-30T22:15:18.468Z,101191.22
2022-08-30T22:17:45.895Z,101188.06
2022-08-30T22:20:18.339Z,101180.72
2022-08-30T22:22:46.236Z,101184.22
2022-08-30T22:25:15.069Z,101167.63
2022-08-30T22:27:42.472Z,101168.84
2022-08-30T22:30:11.001Z,101175.75
2022-08-30T22:32:38.464Z,101142.03
2022-08-30T22:35:08.137Z,101136.00
2022-08-30T22:37:36.880Z,101144.31
2022-08-30T22:40:05.333Z,101144.63
2022-08-30T22:42:32.877Z,101132.28
2022-08-30T22:45:00.344Z,101133.47
2022-08-30T22:47:27.835Z,101118.84
2022-08-30T22:49:55.230Z,101129.91
2022-08-30T22:52:24.116Z,101133.81
2022-08-30T22:54:54.597Z,101129.25
2022-08-30T22:57:21.993Z,101137.94
2022-08-30T22:59:51.858Z,101130.63
2022-08-30T23:02:19.475Z,101118.09
2022-08-30T23:04:47.121Z,101117.59
2022-08-30T23:07:14.937Z,101116.47
2022-08-30T23:09:42.321Z,101109.03
2022-08-30T23:12:11.033Z,101103.81
2022-08-30T23:14:38.458Z,101102.59
2022-08-30T23:17:05.966Z,101088.44
2022-08-30T23:19:33.543Z,101087.41
2022-08-30T23:22:00.934Z,101095.97
2022-08-30T23:24:48.801Z,101087.84
2022-08-30T23:27:37.970Z,101090.31
2022-08-30T23:30:24.133Z,101088.47
2022-08-30T23:33:09.073Z,101083.97
2022-08-30T23:35:54.365Z,101067.25
2022-08-30T23:38:39.941Z,101080.81
2022-08-30T23:41:33.847Z,101064.50
2022-08-30T23:44:20.984Z,101058.09
2022-08-30T23:47:06.210Z,101052.50
2022-08-30T23:49:51.635Z,101046.34
2022-08-30T23:52:37.039Z,101044.03
2022-08-30T23:55:22.834Z,101043.59
2022-08-30T23:58:07.639Z,101030.19
